Time,TemperatureF,DewpointF,PressureIn,WindDirection,WindDirectionDegrees,WindSpeedMPH,WindSpeedGustMPH,Humidity,HourlyPrecipIn,Conditions,Clouds,dailyrainin,SoftwareType,DateUTC
2013-01-12 00:00:00,15.6,10.3,30.17,NNW,331,3.1,4.0,79,0.00,,,0.00,WeatherCatV1.12B45,2013-01-12 08:00:00,
2013-01-12 00:05:00,15.8,10.2,30.17,NW,323,3.6,3.6,78,0.00,,,0.00,WeatherCatV1.12B45,2013-01-12 08:05:00,
2013-01-12 00:10:00,15.8,9.9,30.17,NNW,339,3.1,5.4,77,0.00,,,0.00,WeatherCatV1.12B45,2013-01-12 08:10:00,
2013-01-12 00:15:00,15.8,9.9,30.17,NNW,332,0.0,0.0,77,0.00,,,0.00,WeatherCatV1.12B45,2013-01-12 08:15:00,
2013-01-12 00:20:00,15.8,9.9,30.17,NNW,332,2.2,3.6,77,0.00,,,0.00,WeatherCatV1.12B45,2013-01-12 08:20:00,
2013-01-12 00:25:00,15.8,9.6,30.17,NW,314,3.6,3.6,76,0.00,,,0.00,WeatherCatV1.12B45,2013-01-12 08:25:00,
2013-01-12 00:30:00,15.8,9.6,30.17,NW,326,3.1,3.6,76,0.00,,,0.00,WeatherCatV1.12B45,2013-01-12 08:30:00,
2013-01-12 00:35:00,15.6,9.1,30.17,NNW,335,0.0,4.0,75,0.00,,,0.00,WeatherCatV1.12B45,2013-01-12 08:35:00,
2013-01-12 00:40:00,15.6,9.1,30.20,NNW,335,2.7,3.6,75,0.00,,,0.00,WeatherCatV1.12B45,2013-01-12 08:40:00,
2013-01-12 00:45:00,15.8,9.3,30.20,NNW,335,0.0,4.0,75,0.00,,,0.00,WeatherCatV1.12B45,2013-01-12 08:45:00,
2013-01-12 00:50:00,15.8,9.0,30.20,NNW,335,0.0,0.0,74,0.00,,,0.00,WeatherCatV1.12B45,2013-01-12 08:50:00,
2013-01-12 00:55:00,15.8,9.0,30.17,NNW,335,0.0,0.0,74,0.00,,,0.00,WeatherCatV1.12B45,2013-01-12 08:55:00,
2013-01-12 01:00:00,15.8,9.0,30.17,NNW,335,0.0,0.0,74,0.00,,,0.00,WeatherCatV1.12B45,2013-01-12 09:00:00,
2013-01-12 01:05:00,16.0,9.2,30.17,NNW,335,0.0,0.0,74,0.00,,,0.00,WeatherCatV1.12B45,2013-01-12 09:05:00,
2013-01-12 01:10:00,16.2,9.4,30.17,NNW,335,0.0,2.7,74,0.00,,,0.00,WeatherCatV1.12B45,2013-01-12 09:10:00,
2013-01-12 01:21:00,16.7,10.2,30.17,NNW,335,0.0,0.0,75,0.00,,,0.00,WeatherCatV1.12B45,2013-01-12 09:21:00,
2013-01-12 01:26:00,16.9,10.4,30.17,NNW,335,0.0,0.0,75,0.00,,,0.00,WeatherCatV1.12B45,2013-01-12 09:26:00,
2013-01-12 01:31:00,17.1,10.5,30.17,NNW,335,0.0,0.0,75,0.00,,,0.00,WeatherCatV1.12B45,2013-01-12 09:31:00,
2013-01-12 01:36:00,17.4,10.9,30.17,NNW,335,0.0,0.0,75,0.00,,,0.00,WeatherCatV1.12B45,2013-01-12 09:36:00,
2013-01-12 01:41:00,17.4,11.2,30.17,NNW,335,0.0,0.0,76,0.00,,,0.00,WeatherCatV1.12B45,2013-01-12 09:41:00,
2013-01-12 01:46:00,17.4,10.9,30.17,NNW,335,0.0,0.0,75,0.00,,,0.00,WeatherCatV1.12B45,2013-01-12 09:46:00,
2013-01-12 01:51:00,17.6,11.1,30.17,NNW,335,0.0,0.0,75,0.00,,,0.00,WeatherCatV1.12B45,2013-01-12 09:51:00,
2013-01-12 01:56:00,17.6,11.3,30.20,NNW,335,0.0,0.0,76,0.00,,,0.00,WeatherCatV1.12B45,2013-01-12 09:56:00,
2013-01-12 02:01:00,17.8,11.2,30.20,NNW,335,0.0,0.0,75,0.00,,,0.00,WeatherCatV1.12B45,2013-01-12 10:01:00,
2013-01-12 02:06:00,17.8,11.2,30.20,NNW,335,0.0,0.0,75,0.00,,,0.00,WeatherCatV1.12B45,2013-01-12 10:06:00,
2013-01-12 02:11:00,18.0,11.7,30.20,NNW,335,0.0,0.0,76,0.00,,,0.00,WeatherCatV1.12B45,2013-01-12 10:11:00,
2013-01-12 02:16:00,18.1,11.9,30.20,NNW,335,0.0,0.0,76,0.00,,,0.00,WeatherCatV1.12B45,2013-01-12 10:16:00,
2013-01-12 02:21:00,18.1,11.9,30.20,NNW,335,0.0,0.0,76,0.00,,,0.00,WeatherCatV1.12B45,2013-01-12 10:21:00,
2013-01-12 02:26:00,18.3,12.0,30.20,NNW,335,0.0,0.0,76,0.00,,,0.00,WeatherCatV1.12B45,2013-01-12 10:26:00,
2013-01-12 02:31:00,18.3,12.0,30.20,NNW,335,0.0,0.0,76,0.00,,,0.00,WeatherCatV1.12B45,2013-01-12 10:31:00,
2013-01-12 02:36:00,18.3,12.0,30.17,NNW,335,0.0,0.0,76,0.00,,,0.00,WeatherCatV1.12B45,2013-01-12 10:36:00,
2013-01-12 02:41:00,18.5,12.5,30.17,NNW,335,0.0,0.0,77,0.00,,,0.00,WeatherCatV1.12B45,2013-01-12 10:41:00,
2013-01-12 02:46:00,18.3,12.3,30.17,NNW,335,0.0,0.0,77,0.00,,,0.00,WeatherCatV1.12B45,2013-01-12 10:46:00,
2013-01-12 02:51:00,18.3,12.0,30.17,NNW,335,0.0,0.0,76,0.00,,,0.00,WeatherCatV1.12B45,2013-01-12 10:51:00,
2013-01-12 02:56:00,18.5,12.5,30.17,NNW,335,0.0,0.0,77,0.00,,,0.00,WeatherCatV1.12B45,2013-01-12 10:56:00,
2013-01-12 03:01:00,18.5,12.5,30.17,NNW,335,0.0,0.0,77,0.00,,,0.00,WeatherCatV1.12B45,2013-01-12 11:01:00,
2013-01-12 03:06:00,18.5,12.2,30.17,NNW,335,0.0,0.0,76,0.00,,,0.00,WeatherCatV1.12B45,2013-01-12 11:06:00,
2013-01-12 03:11:00,18.5,12.2,30.17,NNW,335,0.0,0.0,76,0.00,,,0.00,WeatherCatV1.12B45,2013-01-12 11:11:00,
2013-01-12 03:16:00,18.5,12.2,30.17,NNW,335,0.0,0.0,76,0.00,,,0.00,WeatherCatV1.12B45,2013-01-12 11:16:00,
2013-01-12 03:21:00,18.5,12.2,30.17,NNW,335,0.0,0.0,76,0.00,,,0.00,WeatherCatV1.12B45,2013-01-12 11:21:00,
2013-01-12 03:26:00,18.5,12.2,30.17,NNW,335,0.0,0.0,76,0.00,,,0.00,WeatherCatV1.12B45,2013-01-12 11:26:00,
2013-01-12 03:31:00,18.5,12.2,30.17,NNW,335,0.0,0.0,76,0.00,,,0.00,WeatherCatV1.12B45,2013-01-12 11:31:00,
2013-01-12 03:36:00,18.5,12.2,30.17,NNW,335,0.0,0.0,76,0.00,,,0.00,WeatherCatV1.12B45,2013-01-12 11:36:00,
2013-01-12 03:41:00,18.7,12.7,30.17,NNW,335,0.0,0.0,77,0.00,,,0.00,WeatherCatV1.12B45,2013-01-12 11:41:00,
2013-01-12 03:46:00,18.7,12.4,30.17,NNW,335,0.0,0.0,76,0.00,,,0.00,WeatherCatV1.12B45,2013-01-12 11:46:00,
2013-01-12 03:51:00,18.5,12.2,30.17,NNW,335,0.0,0.0,76,0.00,,,0.00,WeatherCatV1.12B45,2013-01-12 11:51:00,
2013-01-12 03:56:00,18.3,12.0,30.17,NNW,335,0.0,0.0,76,0.00,,,0.00,WeatherCatV1.12B45,2013-01-12 11:56:00,
2013-01-12 04:01:00,18.3,12.0,30.17,NNW,335,0.0,0.0,76,0.00,,,0.00,WeatherCatV1.12B45,2013-01-12 12:01:00,
2013-01-12 04:06:00,18.5,12.2,30.17,NNW,335,0.0,0.0,76,0.00,,,0.00,WeatherCatV1.12B45,2013-01-12 12:06:00,
2013-01-12 04:11:00,18.5,12.2,30.17,NNW,335,0.0,0.0,76,0.00,,,0.00,WeatherCatV1.12B45,2013-01-12 12:11:00,
2013-01-12 04:16:00,18.5,12.2,30.17,NNW,335,0.0,0.0,76,0.00,,,0.00,WeatherCatV1.12B45,2013-01-12 12:16:00,
2013-01-12 04:21:00,18.3,12.0,30.17,NNW,335,0.0,0.0,76,0.00,,,0.00,WeatherCatV1.12B45,2013-01-12 12:21:00,
2013-01-12 04:26:00,18.3,12.0,30.17,NNW,335,0.0,0.0,76,0.00,,,0.00,WeatherCatV1.12B45,2013-01-12 12:26:00,
2013-01-12 04:31:00,18.3,12.0,30.17,NNW,335,0.0,0.0,76,0.00,,,0.00,WeatherCatV1.12B45,2013-01-12 12:31:00,
2013-01-12 04:36:00,18.3,12.0,30.17,NNW,335,0.0,0.0,76,0.00,,,0.00,WeatherCatV1.12B45,2013-01-12 12:36:00,
2013-01-12 04:41:00,18.5,12.2,30.17,NNW,335,0.0,0.0,76,0.00,,,0.00,WeatherCatV1.12B45,2013-01-12 12:41:00,
2013-01-12 04:46:00,18.5,12.2,30.17,NNW,335,0.0,0.0,76,0.00,,,0.00,WeatherCatV1.12B45,2013-01-12 12:46:00,
2013-01-12 04:51:00,18.5,12.2,30.17,NNW,335,0.0,0.0,76,0.00,,,0.00,WeatherCatV1.12B45,2013-01-12 12:51:00,
2013-01-12 04:56:00,18.3,12.0,30.17,NNW,335,0.0,0.0,76,0.00,,,0.00,WeatherCatV1.12B45,2013-01-12 12:56:00,
2013-01-12 05:01:00,18.1,11.6,30.17,NNW,335,0.0,0.0,75,0.00,,,0.00,WeatherCatV1.12B45,2013-01-12 13:01:00,
2013-01-12 05:06:00,18.1,11.6,30.17,NNW,335,0.0,0.0,75,0.00,,,0.00,WeatherCatV1.12B45,2013-01-12 13:06:00,
2013-01-12 05:11:00,18.3,12.0,30.17,NNW,335,0.0,0.0,76,0.00,,,0.00,WeatherCatV1.12B45,2013-01-12 13:11:00,
2013-01-12 05:16:00,18.3,12.0,30.17,NNW,335,0.0,0.0,76,0.00,,,0.00,WeatherCatV1.12B45,2013-01-12 13:16:00,
2013-01-12 05:21:00,18.3,12.0,30.17,NNW,335,0.0,0.0,76,0.00,,,0.00,WeatherCatV1.12B45,2013-01-12 13:21:00,
2013-01-12 05:26:00,18.5,12.2,30.17,NNW,335,0.0,0.0,76,0.00,,,0.00,WeatherCatV1.12B45,2013-01-12 13:26:00,
2013-01-12 05:31:00,18.7,12.4,30.17,NNW,335,0.0,0.0,76,0.00,,,0.00,WeatherCatV1.12B45,2013-01-12 13:31:00,
2013-01-12 05:36:00,19.0,12.7,30.17,NNW,335,0.0,0.0,76,0.00,,,0.00,WeatherCatV1.12B45,2013-01-12 13:36:00,
2013-01-12 05:41:00,19.0,12.7,30.17,NNW,335,0.0,0.0,76,0.00,,,0.00,WeatherCatV1.12B45,2013-01-12 13:41:00,
2013-01-12 05:46:00,19.0,12.7,30.17,NNW,335,0.0,0.0,76,0.00,,,0.00,WeatherCatV1.12B45,2013-01-12 13:46:00,
2013-01-12 05:51:00,19.0,12.7,30.17,NNW,335,0.0,0.0,76,0.00,,,0.00,WeatherCatV1.12B45,2013-01-12 13:51:00,
2013-01-12 05:56:00,19.2,13.2,30.17,NNW,335,0.0,0.0,77,0.00,,,0.00,WeatherCatV1.12B45,2013-01-12 13:56:00,
2013-01-12 06:01:00,19.0,13.0,30.17,NNW,335,0.0,0.0,77,0.00,,,0.00,WeatherCatV1.12B45,2013-01-12 14:01:00,
2013-01-12 06:06:00,19.0,13.0,30.17,NNW,335,0.0,0.0,77,0.00,,,0.00,WeatherCatV1.12B45,2013-01-12 14:06:00,
2013-01-12 06:11:00,18.9,12.6,30.17,NNW,335,0.0,0.0,76,0.00,,,0.00,WeatherCatV1.12B45,2013-01-12 14:11:00,
2013-01-12 06:16:00,18.7,12.4,30.17,NNW,335,0.0,0.0,76,0.00,,,0.00,WeatherCatV1.12B45,2013-01-12 14:16:00,
2013-01-12 06:21:00,18.5,12.2,30.17,NNW,335,0.0,0.0,76,0.00,,,0.00,WeatherCatV1.12B45,2013-01-12 14:21:00,
2013-01-12 06:26:00,18.7,12.4,30.17,NNW,335,0.0,0.0,76,0.00,,,0.00,WeatherCatV1.12B45,2013-01-12 14:26:00,
2013-01-12 06:31:00,18.7,12.4,30.17,NNW,335,0.0,0.0,76,0.00,,,0.00,WeatherCatV1.12B45,2013-01-12 14:31:00,
2013-01-12 06:36:00,19.0,12.7,30.17,NNW,335,0.0,0.0,76,0.00,,,0.00,WeatherCatV1.12B45,2013-01-12 14:36:00,
2013-01-12 06:41:00,19.0,13.0,30.17,NNW,335,0.0,0.0,77,0.00,,,0.00,WeatherCatV1.12B45,2013-01-12 14:41:00,
2013-01-12 06:46:00,19.2,13.2,30.17,NNW,335,0.0,0.0,77,0.00,,,0.00,WeatherCatV1.12B45,2013-01-12 14:46:00,
2013-01-12 06:51:00,19.4,13.4,30.20,NNW,335,0.0,0.0,77,0.00,,,0.00,WeatherCatV1.12B45,2013-01-12 14:51:00,
2013-01-12 06:56:00,19.4,13.4,30.20,NNW,335,0.0,0.0,77,0.00,,,0.00,WeatherCatV1.12B45,2013-01-12 14:56:00,
2013-01-12 07:01:00,19.4,13.4,30.20,NNW,335,0.0,0.0,77,0.00,,,0.00,WeatherCatV1.12B45,2013-01-12 15:01:00,
2013-01-12 07:06:00,19.4,13.4,30.20,NNW,335,0.0,0.0,77,0.00,,,0.00,WeatherCatV1.12B45,2013-01-12 15:06:00,
2013-01-12 07:11:00,19.2,13.2,30.20,NNW,335,0.0,0.0,77,0.00,,,0.00,WeatherCatV1.12B45,2013-01-12 15:11:00,
2013-01-12 07:16:00,19.2,13.2,30.20,NNW,335,0.0,0.0,77,0.00,,,0.00,WeatherCatV1.12B45,2013-01-12 15:16:00,
2013-01-12 07:21:00,19.2,13.2,30.20,NNW,335,0.0,0.0,77,0.00,,,0.00,WeatherCatV1.12B45,2013-01-12 15:21:00,
2013-01-12 07:26:00,19.0,12.7,30.20,NNW,335,0.0,0.0,76,0.00,,,0.00,WeatherCatV1.12B45,2013-01-12 15:26:00,
2013-01-12 07:31:00,18.9,12.6,30.20,NNW,335,0.0,0.0,76,0.00,,,0.00,WeatherCatV1.12B45,2013-01-12 15:31:00,
2013-01-12 07:36:00,18.9,12.6,30.20,NNW,335,0.0,0.0,76,0.00,,,0.00,WeatherCatV1.12B45,2013-01-12 15:36:00,
2013-01-12 07:41:00,19.0,12.7,30.20,NNW,335,0.0,0.0,76,0.00,,,0.00,WeatherCatV1.12B45,2013-01-12 15:41:00,
2013-01-12 07:46:00,19.0,12.7,30.20,NNW,335,0.0,0.0,76,0.00,,,0.00,WeatherCatV1.12B45,2013-01-12 15:46:00,
2013-01-12 07:51:00,19.2,13.2,30.20,NNW,335,0.0,0.0,77,0.00,,,0.00,WeatherCatV1.12B45,2013-01-12 15:51:00,
2013-01-12 07:56:00,19.4,13.4,30.20,NNW,335,0.0,0.0,77,0.00,,,0.00,WeatherCatV1.12B45,2013-01-12 15:56:00,
2013-01-12 08:01:00,19.4,13.4,30.20,NNW,335,0.0,0.0,77,0.00,,,0.00,WeatherCatV1.12B45,2013-01-12 16:01:00,
2013-01-12 08:06:00,19.4,13.4,30.20,NNW,335,0.0,4.0,77,0.00,,,0.00,WeatherCatV1.12B45,2013-01-12 16:06:00,
2013-01-12 08:11:00,19.4,13.1,30.20,NNW,337,0.0,0.0,76,0.00,,,0.00,WeatherCatV1.12B45,2013-01-12 16:11:00,
2013-01-12 08:16:00,19.4,13.1,30.20,NNW,337,0.0,0.0,76,0.00,,,0.00,WeatherCatV1.12B45,2013-01-12 16:16:00,
2013-01-12 08:21:00,19.6,13.3,30.20,NNW,337,0.0,0.0,76,0.00,,,0.00,WeatherCatV1.12B45,2013-01-12 16:21:00,
2013-01-12 08:26:00,19.8,13.7,30.20,NNW,337,0.0,0.0,77,0.00,,,0.00,WeatherCatV1.12B45,2013-01-12 16:26:00,
2013-01-12 08:31:00,19.9,13.9,30.20,NW,312,0.0,0.0,77,0.00,,,0.00,WeatherCatV1.12B45,2013-01-12 16:31:00,
2013-01-12 08:36:00,20.1,14.1,30.20,NW,312,0.0,0.0,77,0.00,,,0.00,WeatherCatV1.12B45,2013-01-12 16:36:00,
2013-01-12 08:41:00,20.1,14.1,30.20,NW,312,0.0,0.0,77,0.00,,,0.00,WeatherCatV1.12B45,2013-01-12 16:41:00,
2013-01-12 08:46:00,19.9,13.6,30.20,NW,312,0.0,0.0,76,0.00,,,0.00,WeatherCatV1.12B45,2013-01-12 16:46:00,
2013-01-12 08:51:00,19.6,12.7,30.20,NW,312,0.0,0.0,74,0.00,,,0.00,WeatherCatV1.12B45,2013-01-12 16:51:00,
2013-01-12 08:56:00,19.4,12.5,30.20,NW,312,0.0,0.0,74,0.00,,,0.00,WeatherCatV1.12B45,2013-01-12 16:56:00,
2013-01-12 09:01:00,19.6,12.7,30.20,NW,312,0.0,0.0,74,0.00,,,0.00,WeatherCatV1.12B45,2013-01-12 17:01:00,
2013-01-12 09:06:00,19.6,12.7,30.20,NW,312,0.0,0.0,74,0.00,,,0.00,WeatherCatV1.12B45,2013-01-12 17:06:00,
2013-01-12 09:11:00,19.9,13.0,30.20,NW,312,0.0,0.0,74,0.00,,,0.00,WeatherCatV1.12B45,2013-01-12 17:11:00,
2013-01-12 09:16:00,20.3,13.1,30.20,NW,312,0.0,0.0,73,0.00,,,0.00,WeatherCatV1.12B45,2013-01-12 17:16:00,
2013-01-12 09:21:00,21.2,14.2,30.20,NW,312,0.0,0.0,74,0.00,,,0.00,WeatherCatV1.12B45,2013-01-12 17:21:00,
2013-01-12 09:26:00,21.4,13.5,30.20,NW,312,0.0,0.0,71,0.00,,,0.00,WeatherCatV1.12B45,2013-01-12 17:26:00,
2013-01-12 09:31:00,21.4,12.8,30.20,NW,312,0.0,0.0,69,0.00,,,0.00,WeatherCatV1.12B45,2013-01-12 17:31:00,
2013-01-12 09:36:00,21.4,13.1,30.23,NW,312,0.0,0.0,70,0.00,,,0.00,WeatherCatV1.12B45,2013-01-12 17:36:00,
2013-01-12 09:41:00,21.2,13.0,30.23,NW,312,2.7,3.1,70,0.00,,,0.00,WeatherCatV1.12B45,2013-01-12 17:41:00,
2013-01-12 09:46:00,21.0,12.8,30.23,NW,312,0.0,0.0,70,0.00,,,0.00,WeatherCatV1.12B45,2013-01-12 17:46:00,
2013-01-12 09:51:00,20.8,12.6,30.23,NE,37,3.1,3.1,70,0.00,,,0.00,WeatherCatV1.12B45,2013-01-12 17:51:00,
2013-01-12 09:56:00,20.8,12.9,30.23,NW,309,3.6,3.6,71,0.00,,,0.00,WeatherCatV1.12B45,2013-01-12 17:56:00,
2013-01-12 10:01:00,21.0,13.4,30.23,NW,309,2.2,3.1,72,0.00,,,0.00,WeatherCatV1.12B45,2013-01-12 18:01:00,
2013-01-12 10:06:00,20.5,11.6,30.23,NE,45,3.1,3.6,68,0.00,,,0.00,WeatherCatV1.12B45,2013-01-12 18:06:00,
2013-01-12 10:11:00,20.3,11.5,30.23,NE,45,0.0,0.0,68,0.00,,,0.00,WeatherCatV1.12B45,2013-01-12 18:11:00,
2013-01-12 10:16:00,20.5,12.0,30.23,NE,45,0.0,0.0,69,0.00,,,0.00,WeatherCatV1.12B45,2013-01-12 18:16:00,
2013-01-12 10:21:00,20.5,11.3,30.23,NE,45,0.0,0.0,67,0.00,,,0.00,WeatherCatV1.12B45,2013-01-12 18:21:00,
2013-01-12 10:26:00,20.7,11.5,30.23,NE,45,0.0,0.0,67,0.00,,,0.00,WeatherCatV1.12B45,2013-01-12 18:26:00,
2013-01-12 10:31:00,20.8,11.6,30.23,NE,45,0.0,0.0,67,0.00,,,0.00,WeatherCatV1.12B45,2013-01-12 18:31:00,
2013-01-12 10:36:00,20.8,12.0,30.23,NE,45,0.0,0.0,68,0.00,,,0.00,WeatherCatV1.12B45,2013-01-12 18:36:00,
2013-01-12 10:41:00,21.0,12.1,30.23,NE,45,0.0,0.0,68,0.00,,,0.00,WeatherCatV1.12B45,2013-01-12 18:41:00,
2013-01-12 10:46:00,21.0,11.1,30.23,NE,45,0.0,0.0,65,0.00,,,0.00,WeatherCatV1.12B45,2013-01-12 18:46:00,
2013-01-12 10:51:00,21.2,11.0,30.23,NE,45,3.1,3.1,64,0.00,,,0.00,WeatherCatV1.12B45,2013-01-12 18:51:00,
2013-01-12 10:56:00,21.4,10.4,30.23,NE,45,0.0,3.1,62,0.00,,,0.00,WeatherCatV1.12B45,2013-01-12 18:56:00,
2013-01-12 11:01:00,21.4,10.1,30.23,NE,45,0.0,3.1,61,0.00,,,0.00,WeatherCatV1.12B45,2013-01-12 19:01:00,
2013-01-12 11:06:00,21.7,10.4,30.23,NE,45,0.0,2.2,61,0.00,,,0.00,WeatherCatV1.12B45,2013-01-12 19:06:00,
2013-01-12 11:11:00,22.3,10.5,30.23,NW,316,2.2,5.4,60,0.00,,,0.00,WeatherCatV1.12B45,2013-01-12 19:11:00,
2013-01-12 11:16:00,22.6,10.9,30.23,NW,307,3.1,3.6,60,0.00,,,0.00,WeatherCatV1.12B45,2013-01-12 19:16:00,
2013-01-12 11:21:00,22.8,11.0,30.23,NNW,329,3.1,4.9,60,0.00,,,0.00,WeatherCatV1.12B45,2013-01-12 19:21:00,
2013-01-12 11:26:00,22.6,10.5,30.23,NNW,339,0.0,0.0,59,0.00,,,0.00,WeatherCatV1.12B45,2013-01-12 19:26:00,
2013-01-12 11:31:00,22.5,9.6,30.23,NNW,334,0.0,3.1,57,0.00,,,0.00,WeatherCatV1.12B45,2013-01-12 19:31:00,
2013-01-12 11:36:00,21.9,8.3,30.23,NNE,31,0.0,3.1,55,0.00,,,0.00,WeatherCatV1.12B45,2013-01-12 19:36:00,
2013-01-12 11:41:00,21.9,8.7,30.23,NNE,31,0.0,0.0,56,0.00,,,0.00,WeatherCatV1.12B45,2013-01-12 19:41:00,
2013-01-12 11:47:00,21.9,8.3,30.23,NNE,31,0.0,0.0,55,0.00,,,0.00,WeatherCatV1.12B45,2013-01-12 19:47:00,
2013-01-12 11:52:00,21.2,8.0,30.23,NE,56,2.7,3.6,56,0.00,,,0.00,WeatherCatV1.12B45,2013-01-12 19:52:00,
2013-01-12 11:57:00,21.2,8.4,30.23,NE,54,4.0,5.8,57,0.00,,,0.00,WeatherCatV1.12B45,2013-01-12 19:57:00,
2013-01-12 12:02:00,21.2,8.4,30.23,ENE,64,3.1,4.0,57,0.00,,,0.00,WeatherCatV1.12B45,2013-01-12 20:02:00,
2013-01-12 12:07:00,21.0,7.8,30.23,NE,52,0.0,3.6,56,0.00,,,0.00,WeatherCatV1.12B45,2013-01-12 20:07:00,
2013-01-12 12:12:00,21.0,8.2,30.23,NE,45,2.7,3.1,57,0.00,,,0.00,WeatherCatV1.12B45,2013-01-12 20:12:00,
2013-01-12 12:17:00,21.2,8.0,30.23,North,1,2.7,3.1,56,0.00,,,0.00,WeatherCatV1.12B45,2013-01-12 20:17:00,
2013-01-12 12:22:00,21.4,7.8,30.23,NNE,12,2.7,3.1,55,0.00,,,0.00,WeatherCatV1.12B45,2013-01-12 20:22:00,
2013-01-12 12:27:00,21.4,7.8,30.23,NNE,12,0.0,0.0,55,0.00,,,0.00,WeatherCatV1.12B45,2013-01-12 20:27:00,
2013-01-12 12:32:00,21.4,7.4,30.23,NNE,12,2.2,2.7,54,0.00,,,0.00,WeatherCatV1.12B45,2013-01-12 20:32:00,
2013-01-12 12:37:00,21.6,7.9,30.23,NNE,12,3.1,3.1,55,0.00,,,0.00,WeatherCatV1.12B45,2013-01-12 20:37:00,
2013-01-12 12:42:00,21.4,7.4,30.23,NNE,28,0.0,0.0,54,0.00,,,0.00,WeatherCatV1.12B45,2013-01-12 20:42:00,
2013-01-12 12:48:00,21.6,7.1,30.23,North,0,3.1,3.6,53,0.00,,,0.00,WeatherCatV1.12B45,2013-01-12 20:48:00,
2013-01-12 12:53:00,21.6,7.5,30.23,NNE,16,0.0,2.7,54,0.00,,,0.00,WeatherCatV1.12B45,2013-01-12 20:53:00,
2013-01-12 12:58:00,21.2,7.2,30.23,ENE,66,2.7,3.1,54,0.00,,,0.00,WeatherCatV1.12B45,2013-01-12 20:58:00,
2013-01-12 13:03:00,21.7,7.7,30.23,North,1,0.0,0.0,54,0.00,,,0.00,WeatherCatV1.12B45,2013-01-12 21:03:00,
2013-01-12 13:08:00,22.1,7.6,30.23,NW,322,2.2,3.1,53,0.00,,,0.00,WeatherCatV1.12B45,2013-01-12 21:08:00,
2013-01-12 13:13:00,22.1,7.6,30.23,North,7,0.0,0.0,53,0.00,,,0.00,WeatherCatV1.12B45,2013-01-12 21:13:00,
2013-01-12 13:18:00,21.4,6.5,30.23,NE,54,0.0,2.7,52,0.00,,,0.00,WeatherCatV1.12B45,2013-01-12 21:18:00,
2013-01-12 13:23:00,21.2,7.2,30.23,NNE,27,2.7,4.0,54,0.00,,,0.00,WeatherCatV1.12B45,2013-01-12 21:23:00,
2013-01-12 13:28:00,21.4,6.9,30.23,WNW,290,0.0,4.0,53,0.00,,,0.00,WeatherCatV1.12B45,2013-01-12 21:28:00,
2013-01-12 13:33:00,21.9,7.9,30.23,WNW,290,0.0,0.0,54,0.00,,,0.00,WeatherCatV1.12B45,2013-01-12 21:33:00,
2013-01-12 13:38:00,21.7,7.3,30.23,WNW,300,2.2,4.0,53,0.00,,,0.00,WeatherCatV1.12B45,2013-01-12 21:38:00,
2013-01-12 13:43:00,20.8,6.4,30.23,NW,305,4.0,4.0,53,0.00,,,0.00,WeatherCatV1.12B45,2013-01-12 21:43:00,
2013-01-12 13:48:00,20.1,6.2,30.23,NNE,21,3.6,3.6,54,0.00,,,0.00,WeatherCatV1.12B45,2013-01-12 21:48:00,
2013-01-12 13:53:00,20.1,6.6,30.23,WNW,292,2.7,3.6,55,0.00,,,0.00,WeatherCatV1.12B45,2013-01-12 21:53:00,
2013-01-12 13:58:00,19.9,6.4,30.23,WNW,288,0.0,3.6,55,0.00,,,0.00,WeatherCatV1.12B45,2013-01-12 21:58:00,
2013-01-12 14:03:00,19.8,6.6,30.23,West,261,0.0,0.0,56,0.00,,,0.00,WeatherCatV1.12B45,2013-01-12 22:03:00,
2013-01-12 14:08:00,19.9,7.2,30.23,WSW,254,0.0,0.0,57,0.00,,,0.00,WeatherCatV1.12B45,2013-01-12 22:08:00,
2013-01-12 14:13:00,19.8,7.0,30.23,NNE,18,0.0,0.0,57,0.00,,,0.00,WeatherCatV1.12B45,2013-01-12 22:13:00,
2013-01-12 14:18:00,19.8,7.0,30.23,NNE,18,0.0,0.0,57,0.00,,,0.00,WeatherCatV1.12B45,2013-01-12 22:18:00,
2013-01-12 14:23:00,19.8,7.0,30.23,NNE,18,0.0,0.0,57,0.00,,,0.00,WeatherCatV1.12B45,2013-01-12 22:23:00,
2013-01-12 14:28:00,19.6,6.9,30.23,NNE,18,0.0,0.0,57,0.00,,,0.00,WeatherCatV1.12B45,2013-01-12 22:28:00,
2013-01-12 14:33:00,19.4,7.1,30.23,SW,232,0.0,0.0,58,0.00,,,0.00,WeatherCatV1.12B45,2013-01-12 22:33:00,
2013-01-12 14:38:00,19.0,6.7,30.23,SW,232,0.0,0.0,58,0.00,,,0.00,WeatherCatV1.12B45,2013-01-12 22:38:00,
2013-01-12 14:43:00,18.5,6.2,30.23,SW,232,0.0,0.0,58,0.00,,,0.00,WeatherCatV1.12B45,2013-01-12 22:43:00,
2013-01-12 14:48:00,18.3,6.4,30.23,SW,232,0.0,0.0,59,0.00,,,0.00,WeatherCatV1.12B45,2013-01-12 22:48:00,
2013-01-12 14:53:00,17.8,5.9,30.23,SW,232,0.0,0.0,59,0.00,,,0.00,WeatherCatV1.12B45,2013-01-12 22:53:00,
2013-01-12 14:58:00,17.6,6.1,30.23,SW,232,0.0,0.0,60,0.00,,,0.00,WeatherCatV1.12B45,2013-01-12 22:58:00,
2013-01-12 15:03:00,17.4,6.7,30.23,SW,232,0.0,0.0,62,0.00,,,0.00,WeatherCatV1.12B45,2013-01-12 23:03:00,
2013-01-12 15:08:00,17.1,6.3,30.26,SW,232,0.0,0.0,62,0.00,,,0.00,WeatherCatV1.12B45,2013-01-12 23:08:00,
2013-01-12 15:13:00,17.1,6.7,30.26,SW,232,0.0,0.0,63,0.00,,,0.00,WeatherCatV1.12B45,2013-01-12 23:13:00,
2013-01-12 15:18:00,17.1,7.0,30.26,SW,232,0.0,0.0,64,0.00,,,0.00,WeatherCatV1.12B45,2013-01-12 23:18:00,
2013-01-12 15:23:00,17.1,7.4,30.23,SW,232,0.0,0.0,65,0.00,,,0.00,WeatherCatV1.12B45,2013-01-12 23:23:00,
2013-01-12 15:28:00,16.9,7.2,30.23,SW,232,0.0,0.0,65,0.00,,,0.00,WeatherCatV1.12B45,2013-01-12 23:28:00,
2013-01-12 15:33:00,16.9,7.5,30.23,SW,232,0.0,0.0,66,0.00,,,0.00,WeatherCatV1.12B45,2013-01-12 23:33:00,
2013-01-12 15:38:00,16.7,7.7,30.23,SW,232,0.0,0.0,67,0.00,,,0.00,WeatherCatV1.12B45,2013-01-12 23:38:00,
2013-01-12 15:43:00,16.7,7.7,30.23,SW,232,0.0,0.0,67,0.00,,,0.00,WeatherCatV1.12B45,2013-01-12 23:43:00,
2013-01-12 15:48:00,16.5,7.5,30.23,SW,232,0.0,0.0,67,0.00,,,0.00,WeatherCatV1.12B45,2013-01-12 23:48:00,
2013-01-12 15:53:00,16.2,7.5,30.26,SW,232,0.0,0.0,68,0.00,,,0.00,WeatherCatV1.12B45,2013-01-12 23:53:00,
2013-01-12 15:58:00,16.0,7.3,30.26,SW,232,0.0,0.0,68,0.00,,,0.00,WeatherCatV1.12B45,2013-01-12 23:58:00,
2013-01-12 16:03:00,15.8,7.8,30.26,SW,232,2.7,3.6,70,0.00,,,0.00,WeatherCatV1.12B45,2013-01-13 00:03:00,
2013-01-12 16:08:00,15.6,7.6,30.26,SW,232,2.2,2.2,70,0.00,,,0.00,WeatherCatV1.12B45,2013-01-13 00:08:00,
2013-01-12 16:13:00,15.4,7.4,30.26,SW,232,2.7,3.1,70,0.00,,,0.00,WeatherCatV1.12B45,2013-01-13 00:13:00,
2013-01-12 16:18:00,15.3,7.6,30.26,SW,232,0.0,2.7,71,0.00,,,0.00,WeatherCatV1.12B45,2013-01-13 00:18:00,
2013-01-12 16:23:00,14.9,7.2,30.26,SW,232,0.0,0.0,71,0.00,,,0.00,WeatherCatV1.12B45,2013-01-13 00:23:00,
2013-01-12 16:28:00,14.5,6.9,30.26,SW,232,0.0,0.0,71,0.00,,,0.00,WeatherCatV1.12B45,2013-01-13 00:28:00,
2013-01-12 16:33:00,14.4,7.0,30.26,SW,232,0.0,0.0,72,0.00,,,0.00,WeatherCatV1.12B45,2013-01-13 00:33:00,
2013-01-12 16:38:00,14.4,7.6,30.26,SW,232,0.0,0.0,74,0.00,,,0.00,WeatherCatV1.12B45,2013-01-13 00:38:00,
2013-01-12 16:44:00,14.4,7.9,30.26,SW,232,0.0,0.0,75,0.00,,,0.00,WeatherCatV1.12B45,2013-01-13 00:44:00,
2013-01-12 16:49:00,14.4,7.9,30.26,SW,232,0.0,0.0,75,0.00,,,0.00,WeatherCatV1.12B45,2013-01-13 00:49:00,
2013-01-12 16:54:00,14.2,7.7,30.26,SW,232,0.0,0.0,75,0.00,,,0.00,WeatherCatV1.12B45,2013-01-13 00:54:00,
2013-01-12 16:59:00,14.2,8.0,30.26,SW,232,3.1,3.6,76,0.00,,,0.00,WeatherCatV1.12B45,2013-01-13 00:59:00,
2013-01-12 17:04:00,14.5,8.7,30.26,SW,232,3.1,3.1,77,0.00,,,0.00,WeatherCatV1.12B45,2013-01-13 01:04:00,
2013-01-12 17:09:00,14.5,8.7,30.26,SW,232,0.0,2.7,77,0.00,,,0.00,WeatherCatV1.12B45,2013-01-13 01:09:00,
2013-01-12 17:14:00,14.5,9.0,30.26,SW,232,0.0,0.0,78,0.00,,,0.00,WeatherCatV1.12B45,2013-01-13 01:14:00,
2013-01-12 17:19:00,14.4,8.5,30.26,SW,232,0.0,0.0,77,0.00,,,0.00,WeatherCatV1.12B45,2013-01-13 01:19:00,
2013-01-12 17:24:00,14.2,8.3,30.26,SW,232,0.0,0.0,77,0.00,,,0.00,WeatherCatV1.12B45,2013-01-13 01:24:00,
2013-01-12 17:29:00,13.8,8.0,30.26,SW,232,0.0,0.0,77,0.00,,,0.00,WeatherCatV1.12B45,2013-01-13 01:29:00,
2013-01-12 17:34:00,13.6,7.8,30.26,SW,232,0.0,0.0,77,0.00,,,0.00,WeatherCatV1.12B45,2013-01-13 01:34:00,
2013-01-12 17:39:00,13.6,7.8,30.26,SW,232,0.0,0.0,77,0.00,,,0.00,WeatherCatV1.12B45,2013-01-13 01:39:00,
2013-01-12 17:44:00,13.6,7.8,30.26,SW,232,0.0,0.0,77,0.00,,,0.00,WeatherCatV1.12B45,2013-01-13 01:44:00,
2013-01-12 17:49:00,13.6,7.8,30.26,SW,232,0.0,0.0,77,0.00,,,0.00,WeatherCatV1.12B45,2013-01-13 01:49:00,
2013-01-12 17:54:00,13.6,7.8,30.26,SW,232,0.0,0.0,77,0.00,,,0.00,WeatherCatV1.12B45,2013-01-13 01:54:00,
2013-01-12 17:59:00,13.5,7.6,30.26,SW,232,0.0,0.0,77,0.00,,,0.00,WeatherCatV1.12B45,2013-01-13 01:59:00,
2013-01-12 18:04:00,13.3,7.4,30.26,SW,232,0.0,0.0,77,0.00,,,0.00,WeatherCatV1.12B45,2013-01-13 02:04:00,
2013-01-12 18:09:00,13.1,7.3,30.26,SW,232,0.0,0.0,77,0.00,,,0.00,WeatherCatV1.12B45,2013-01-13 02:09:00,
2013-01-12 18:14:00,13.3,7.4,30.26,SW,232,0.0,0.0,77,0.00,,,0.00,WeatherCatV1.12B45,2013-01-13 02:14:00,
2013-01-12 18:19:00,13.3,7.4,30.26,SW,232,0.0,0.0,77,0.00,,,0.00,WeatherCatV1.12B45,2013-01-13 02:19:00,
2013-01-12 18:24:00,13.3,7.4,30.26,SW,232,0.0,0.0,77,0.00,,,0.00,WeatherCatV1.12B45,2013-01-13 02:24:00,
2013-01-12 18:29:00,12.9,7.1,30.26,SW,232,0.0,0.0,77,0.00,,,0.00,WeatherCatV1.12B45,2013-01-13 02:29:00,
2013-01-12 18:34:00,12.9,7.1,30.26,SW,232,0.0,0.0,77,0.00,,,0.00,WeatherCatV1.12B45,2013-01-13 02:34:00,
2013-01-12 18:39:00,12.7,6.9,30.26,SW,232,0.0,0.0,77,0.00,,,0.00,WeatherCatV1.12B45,2013-01-13 02:39:00,
2013-01-12 18:44:00,12.7,6.9,30.26,SW,232,0.0,0.0,77,0.00,,,0.00,WeatherCatV1.12B45,2013-01-13 02:44:00,
2013-01-12 18:49:00,12.6,6.7,30.26,SSW,198,0.0,0.0,77,0.00,,,0.00,WeatherCatV1.12B45,2013-01-13 02:49:00,
2013-01-12 18:54:00,12.6,6.7,30.26,South,190,0.0,0.0,77,0.00,,,0.00,WeatherCatV1.12B45,2013-01-13 02:54:00,
2013-01-12 18:59:00,12.9,7.1,30.26,South,182,0.0,0.0,77,0.00,,,0.00,WeatherCatV1.12B45,2013-01-13 02:59:00,
2013-01-12 19:04:00,13.3,7.4,30.26,South,182,0.0,0.0,77,0.00,,,0.00,WeatherCatV1.12B45,2013-01-13 03:04:00,
2013-01-12 19:09:00,14.0,8.1,30.26,South,182,0.0,0.0,77,0.00,,,0.00,WeatherCatV1.12B45,2013-01-13 03:09:00,
2013-01-12 19:14:00,14.2,8.0,30.26,South,182,0.0,0.0,76,0.00,,,0.00,WeatherCatV1.12B45,2013-01-13 03:14:00,
2013-01-12 19:19:00,14.0,7.9,30.26,South,182,0.0,0.0,76,0.00,,,0.00,WeatherCatV1.12B45,2013-01-13 03:19:00,
2013-01-12 19:24:00,13.8,7.7,30.26,South,182,0.0,0.0,76,0.00,,,0.00,WeatherCatV1.12B45,2013-01-13 03:24:00,
2013-01-12 19:29:00,13.8,7.7,30.26,South,182,0.0,0.0,76,0.00,,,0.00,WeatherCatV1.12B45,2013-01-13 03:29:00,
2013-01-12 19:34:00,13.5,7.3,30.26,South,182,0.0,0.0,76,0.00,,,0.00,WeatherCatV1.12B45,2013-01-13 03:34:00,
2013-01-12 19:39:00,13.3,7.2,30.26,South,182,0.0,0.0,76,0.00,,,0.00,WeatherCatV1.12B45,2013-01-13 03:39:00,
2013-01-12 19:44:00,12.7,6.6,30.26,South,182,0.0,0.0,76,0.00,,,0.00,WeatherCatV1.12B45,2013-01-13 03:44:00,
2013-01-12 19:49:00,12.4,6.3,30.26,South,182,0.0,0.0,76,0.00,,,0.00,WeatherCatV1.12B45,2013-01-13 03:49:00,
2013-01-12 19:54:00,12.6,6.5,30.26,South,182,0.0,0.0,76,0.00,,,0.00,WeatherCatV1.12B45,2013-01-13 03:54:00,
2013-01-12 19:59:00,12.6,6.5,30.26,South,182,0.0,0.0,76,0.00,,,0.00,WeatherCatV1.12B45,2013-01-13 03:59:00,
2013-01-12 20:04:00,12.0,5.9,30.26,South,182,0.0,0.0,76,0.00,,,0.00,WeatherCatV1.12B45,2013-01-13 04:04:00,
2013-01-12 20:09:00,11.8,5.8,30.26,South,182,0.0,0.0,76,0.00,,,0.00,WeatherCatV1.12B45,2013-01-13 04:09:00,
2013-01-12 20:14:00,12.0,5.9,30.26,NW,321,0.0,0.0,76,0.00,,,0.00,WeatherCatV1.12B45,2013-01-13 04:14:00,
2013-01-12 20:19:00,12.0,5.9,30.26,NW,321,0.0,0.0,76,0.00,,,0.00,WeatherCatV1.12B45,2013-01-13 04:19:00,
2013-01-12 20:24:00,12.0,5.9,30.26,NW,321,0.0,0.0,76,0.00,,,0.00,WeatherCatV1.12B45,2013-01-13 04:24:00,
2013-01-12 20:29:00,12.0,5.9,30.26,NW,321,0.0,0.0,76,0.00,,,0.00,WeatherCatV1.12B45,2013-01-13 04:29:00,
2013-01-12 20:34:00,11.7,5.6,30.26,NW,321,0.0,0.0,76,0.00,,,0.00,WeatherCatV1.12B45,2013-01-13 04:34:00,
2013-01-12 20:39:00,11.5,5.4,30.26,NW,321,0.0,0.0,76,0.00,,,0.00,WeatherCatV1.12B45,2013-01-13 04:39:00,
2013-01-12 20:44:00,11.7,5.6,30.26,NW,321,0.0,0.0,76,0.00,,,0.00,WeatherCatV1.12B45,2013-01-13 04:44:00,
2013-01-12 20:49:00,11.3,5.2,30.26,NW,321,0.0,0.0,76,0.00,,,0.00,WeatherCatV1.12B45,2013-01-13 04:49:00,
2013-01-12 20:54:00,11.7,5.6,30.26,NW,321,0.0,0.0,76,0.00,,,0.00,WeatherCatV1.12B45,2013-01-13 04:54:00,
2013-01-12 20:59:00,11.3,5.2,30.26,NW,321,0.0,0.0,76,0.00,,,0.00,WeatherCatV1.12B45,2013-01-13 04:59:00,
2013-01-12 21:00:00,11.3,5.2,30.26,NW,321,0.0,0.0,76,0.00,,,0.00,WeatherCatV1.12B45,2013-01-13 05:00:00,
2013-01-12 21:05:00,11.3,5.2,30.26,NW,321,0.0,0.0,76,0.00,,,0.00,WeatherCatV1.12B45,2013-01-13 05:05:00,
2013-01-12 21:10:00,11.3,5.2,30.26,NW,321,0.0,0.0,76,0.00,,,0.00,WeatherCatV1.12B45,2013-01-13 05:10:00,
2013-01-12 21:15:00,11.3,5.2,30.26,NW,321,0.0,0.0,76,0.00,,,0.00,WeatherCatV1.12B45,2013-01-13 05:15:00,
2013-01-12 21:20:00,11.1,5.1,30.26,NW,321,0.0,0.0,76,0.00,,,0.00,WeatherCatV1.12B45,2013-01-13 05:20:00,
2013-01-12 21:25:00,11.1,5.1,30.26,NW,321,0.0,0.0,76,0.00,,,0.00,WeatherCatV1.12B45,2013-01-13 05:25:00,
2013-01-12 21:30:00,11.3,5.2,30.26,NW,321,0.0,0.0,76,0.00,,,0.00,WeatherCatV1.12B45,2013-01-13 05:30:00,
2013-01-12 21:35:00,11.5,5.4,30.26,NW,321,0.0,0.0,76,0.00,,,0.00,WeatherCatV1.12B45,2013-01-13 05:35:00,
2013-01-12 21:40:00,11.7,5.6,30.26,NW,321,0.0,0.0,76,0.00,,,0.00,WeatherCatV1.12B45,2013-01-13 05:40:00,
2013-01-12 21:45:00,11.7,5.6,30.26,NW,321,0.0,0.0,76,0.00,,,0.00,WeatherCatV1.12B45,2013-01-13 05:45:00,
2013-01-12 21:50:00,11.3,5.2,30.26,NW,321,0.0,0.0,76,0.00,,,0.00,WeatherCatV1.12B45,2013-01-13 05:50:00,
2013-01-12 21:55:00,11.5,5.4,30.26,NW,321,0.0,0.0,76,0.00,,,0.00,WeatherCatV1.12B45,2013-01-13 05:55:00,
2013-01-12 22:00:00,11.8,5.8,30.26,NW,321,0.0,0.0,76,0.00,,,0.00,WeatherCatV1.12B45,2013-01-13 06:00:00,
2013-01-12 22:05:00,12.0,5.9,30.26,NW,321,0.0,0.0,76,0.00,,,0.00,WeatherCatV1.12B45,2013-01-13 06:05:00,
2013-01-12 22:10:00,12.0,5.9,30.26,NW,321,0.0,0.0,76,0.00,,,0.00,WeatherCatV1.12B45,2013-01-13 06:10:00,
2013-01-12 22:15:00,11.8,5.8,30.26,NW,321,0.0,0.0,76,0.00,,,0.00,WeatherCatV1.12B45,2013-01-13 06:15:00,
2013-01-12 22:20:00,11.8,5.8,30.26,NW,321,0.0,0.0,76,0.00,,,0.00,WeatherCatV1.12B45,2013-01-13 06:20:00,
2013-01-12 22:25:00,12.0,5.9,30.26,NW,321,0.0,0.0,76,0.00,,,0.00,WeatherCatV1.12B45,2013-01-13 06:25:00,
2013-01-12 22:30:00,12.0,5.9,30.26,NW,321,0.0,0.0,76,0.00,,,0.00,WeatherCatV1.12B45,2013-01-13 06:30:00,
2013-01-12 22:35:00,12.4,6.3,30.26,NW,321,0.0,0.0,76,0.00,,,0.00,WeatherCatV1.12B45,2013-01-13 06:35:00,
2013-01-12 22:40:00,12.7,6.6,30.26,NW,321,0.0,0.0,76,0.00,,,0.00,WeatherCatV1.12B45,2013-01-13 06:40:00,
2013-01-12 22:45:00,12.9,6.8,30.26,NW,321,0.0,0.0,76,0.00,,,0.00,WeatherCatV1.12B45,2013-01-13 06:45:00,
2013-01-12 22:50:00,12.9,6.8,30.26,NW,321,0.0,0.0,76,0.00,,,0.00,WeatherCatV1.12B45,2013-01-13 06:50:00,
2013-01-12 22:55:00,12.9,6.8,30.26,NW,321,0.0,0.0,76,0.00,,,0.00,WeatherCatV1.12B45,2013-01-13 06:55:00,
2013-01-12 23:00:00,13.1,7.0,30.26,NW,321,0.0,0.0,76,0.00,,,0.00,WeatherCatV1.12B45,2013-01-13 07:00:00,
2013-01-12 23:05:00,13.3,7.2,30.26,NW,321,0.0,0.0,76,0.00,,,0.00,WeatherCatV1.12B45,2013-01-13 07:05:00,
2013-01-12 23:10:00,13.3,7.2,30.26,NW,321,0.0,0.0,76,0.00,,,0.00,WeatherCatV1.12B45,2013-01-13 07:10:00,
2013-01-12 23:15:00,13.6,7.5,30.26,NW,321,0.0,0.0,76,0.00,,,0.00,WeatherCatV1.12B45,2013-01-13 07:15:00,
2013-01-12 23:20:00,13.8,7.7,30.26,NW,321,0.0,0.0,76,0.00,,,0.00,WeatherCatV1.12B45,2013-01-13 07:20:00,
2013-01-12 23:25:00,13.8,7.7,30.26,NW,321,0.0,0.0,76,0.00,,,0.00,WeatherCatV1.12B45,2013-01-13 07:25:00,
2013-01-12 23:30:00,14.0,6.7,30.26,NW,321,0.0,0.0,72,0.00,,,0.00,WeatherCatV1.12B45,2013-01-13 07:30:00,
2013-01-12 23:35:00,14.4,6.7,30.26,NW,321,0.0,0.0,71,0.00,,,0.00,WeatherCatV1.12B45,2013-01-13 07:35:00,
2013-01-12 23:40:00,14.4,7.0,30.26,NW,321,0.0,0.0,72,0.00,,,0.00,WeatherCatV1.12B45,2013-01-13 07:40:00,
2013-01-12 23:45:00,14.4,7.0,30.26,NW,321,0.0,0.0,72,0.00,,,0.00,WeatherCatV1.12B45,2013-01-13 07:45:00,
2013-01-12 23:50:00,14.5,7.2,30.26,NW,321,0.0,0.0,72,0.00,,,0.00,WeatherCatV1.12B45,2013-01-13 07:50:00,
2013-01-12 23:55:00,14.7,7.4,30.26,NW,321,0.0,0.0,72,0.00,,,0.00,WeatherCatV1.12B45,2013-01-13 07:55:00,